createdAt,value
2019-03-19T00:01:36.910Z,62.10
2019-03-19T00:04:07.561Z,62.51
2019-03-19T00:06:38.745Z,62.37
2019-03-19T00:09:10.097Z,62.13
2019-03-19T00:11:40.800Z,62.58
2019-03-19T00:14:11.531Z,62.54
2019-03-19T00:16:42.449Z,62.52
2019-03-19T00:19:13.131Z,62.35
2019-03-19T00:21:44.157Z,62.66
2019-03-19T00:24:15.066Z,62.43
2019-03-19T00:26:45.728Z,62.59
2019-03-19T00:29:16.637Z,62.34
2019-03-19T00:31:47.606Z,62.46
2019-03-19T00:34:18.250Z,62.62
2019-03-19T00:36:48.923Z,63.12
2019-03-19T00:39:19.584Z,62.97
2019-03-19T00:41:50.250Z,63.00
2019-03-19T00:44:20.928Z,62.75
2019-03-19T00:46:51.864Z,63.26
2019-03-19T00:49:22.531Z,63.11
2019-03-19T00:51:53.459Z,63.41
2019-03-19T00:54:24.384Z,63.65
2019-03-19T00:56:55.076Z,63.67
2019-03-19T00:59:25.723Z,63.66
2019-03-19T01:01:56.382Z,63.64
2019-03-19T01:04:27.031Z,63.86
2019-03-19T01:06:57.961Z,63.58
2019-03-19T01:09:28.630Z,63.77
2019-03-19T01:11:59.556Z,64.00
2019-03-19T01:14:30.231Z,64.11
2019-03-19T01:17:00.905Z,63.62
2019-03-19T01:19:31.830Z,63.94
2019-03-19T01:22:02.780Z,63.59
2019-03-19T01:24:33.450Z,62.95
2019-03-19T01:27:04.145Z,63.55
2019-03-19T01:29:35.055Z,62.97
2019-03-19T01:32:05.977Z,62.80
2019-03-19T01:34:37.021Z,62.94
2019-03-19T01:37:07.704Z,63.00
2019-03-19T01:39:38.363Z,62.88
2019-03-19T01:42:09.015Z,62.94
2019-03-19T01:44:40.083Z,62.90
2019-03-19T01:47:12.207Z,62.33
2019-03-19T01:49:42.875Z,62.51
2019-03-19T01:52:13.539Z,62.14
2019-03-19T01:54:44.561Z,62.40
2019-03-19T01:57:15.231Z,61.99
2019-03-19T01:59:46.024Z,62.50
2019-03-19T02:02:16.703Z,62.57
2019-03-19T02:04:47.389Z,62.88
2019-03-19T02:07:18.061Z,62.99
2019-03-19T02:09:48.997Z,62.67
2019-03-19T02:12:19.685Z,62.91
2019-03-19T02:14:50.718Z,63.01
2019-03-19T02:17:21.341Z,62.87
2019-03-19T02:19:52.018Z,62.90
2019-03-19T02:22:22.739Z,63.15
2019-03-19T02:24:54.644Z,63.08
2019-03-19T02:27:25.598Z,63.17
2019-03-19T02:29:56.538Z,63.47
2019-03-19T02:32:27.229Z,63.26
2019-03-19T02:34:57.899Z,63.08
2019-03-19T02:37:29.121Z,63.50
2019-03-19T02:39:59.774Z,63.69
2019-03-19T02:42:30.787Z,63.46
2019-03-19T02:45:01.690Z,63.42
2019-03-19T02:47:32.428Z,63.50
2019-03-19T02:50:03.676Z,63.52
2019-03-19T02:52:34.346Z,63.28
2019-03-19T02:55:09.527Z,63.47
2019-03-19T02:57:40.209Z,63.64
2019-03-19T03:00:19.285Z,63.17
2019-03-19T03:02:49.985Z,63.56
2019-03-19T03:05:24.301Z,63.52
2019-03-19T03:07:54.995Z,63.76
2019-03-19T03:10:25.995Z,63.77
2019-03-19T03:12:56.842Z,63.64
2019-03-19T03:15:27.510Z,63.70
2019-03-19T03:17:58.185Z,64.12
2019-03-19T03:20:28.863Z,63.78
2019-03-19T03:22:59.534Z,63.99
2019-03-19T03:25:30.184Z,64.29
2019-03-19T03:28:00.857Z,64.11
2019-03-19T03:30:31.524Z,64.02
2019-03-19T03:33:02.213Z,64.55
2019-03-19T03:35:32.892Z,64.30
2019-03-19T03:38:03.559Z,64.16
2019-03-19T03:40:34.368Z,64.43
2019-03-19T03:43:05.566Z,64.81
2019-03-19T03:45:36.231Z,65.13
2019-03-19T03:48:07.779Z,65.26
2019-03-19T03:50:40.578Z,65.12
2019-03-19T03:53:12.675Z,65.43
2019-03-19T03:55:43.753Z,65.41
2019-03-19T03:58:14.698Z,65.17
2019-03-19T04:00:45.655Z,65.62
2019-03-19T04:03:16.307Z,65.22
2019-03-19T04:05:46.976Z,65.25
2019-03-19T04:08:18.043Z,65.00
2019-03-19T04:10:49.041Z,65.22
2019-03-19T04:13:19.688Z,65.04
2019-03-19T04:15:50.362Z,65.00
2019-03-19T04:18:21.784Z,64.79
2019-03-19T04:20:52.542Z,64.36
2019-03-19T04:23:23.254Z,64.74
2019-03-19T04:25:54.427Z,64.40
2019-03-19T04:28:25.347Z,64.49
2019-03-19T04:30:56.283Z,64.73
2019-03-19T04:33:27.202Z,64.52
2019-03-19T04:35:57.891Z,64.86
2019-03-19T04:38:28.521Z,64.79
2019-03-19T04:40:59.195Z,64.60
2019-03-19T04:43:29.883Z,64.79
2019-03-19T04:46:00.837Z,64.15
2019-03-19T04:48:31.775Z,63.94
2019-03-19T04:51:02.431Z,63.77
2019-03-19T04:53:33.125Z,64.05
2019-03-19T04:56:04.050Z,63.85
2019-03-19T04:58:35.980Z,64.02
2019-03-19T05:01:06.634Z,64.05
2019-03-19T05:03:37.567Z,63.99
2019-03-19T05:06:08.480Z,64.10
2019-03-19T05:08:39.409Z,64.39
2019-03-19T05:11:10.386Z,64.93
2019-03-19T05:13:41.032Z,64.79
2019-03-19T05:16:11.972Z,64.81
2019-03-19T05:18:42.930Z,65.08
2019-03-19T05:21:13.589Z,65.21
2019-03-19T05:23:44.527Z,65.72
2019-03-19T05:26:15.225Z,65.86
2019-03-19T05:28:46.166Z,67.15
2019-03-19T05:31:16.831Z,71.37
2019-03-19T05:33:47.766Z,67.04
2019-03-19T05:36:18.989Z,65.43
2019-03-19T05:38:50.631Z,65.96
2019-03-19T05:41:21.632Z,65.60
2019-03-19T05:43:52.528Z,66.18
2019-03-19T05:46:23.231Z,65.33
2019-03-19T05:48:54.045Z,65.39
2019-03-19T05:51:24.777Z,65.56
2019-03-19T05:53:55.686Z,66.02
2019-03-19T05:56:26.636Z,65.31
2019-03-19T05:58:57.300Z,65.25
2019-03-19T06:01:28.284Z,65.28
2019-03-19T06:03:59.005Z,65.62
2019-03-19T06:06:30.048Z,65.54
2019-03-19T06:09:01.067Z,65.09
2019-03-19T06:11:33.157Z,65.65
2019-03-19T06:14:04.181Z,66.39
2019-03-19T06:16:34.887Z,65.94
2019-03-19T06:19:05.548Z,66.12
2019-03-19T06:21:36.232Z,66.26
2019-03-19T06:24:07.217Z,66.71
2019-03-19T06:26:38.242Z,66.65
2019-03-19T06:29:08.915Z,66.27
2019-03-19T06:31:39.588Z,65.94
2019-03-19T06:34:10.263Z,66.58
2019-03-19T06:36:41.205Z,66.21
2019-03-19T06:39:11.875Z,65.81
2019-03-19T06:41:42.579Z,65.35
2019-03-19T06:44:13.545Z,65.03
2019-03-19T06:46:44.214Z,64.11
2019-03-19T06:49:15.153Z,64.08
2019-03-19T06:51:48.866Z,64.13
2019-03-19T06:54:24.503Z,62.96
2019-03-19T06:56:57.122Z,63.05
2019-03-19T06:59:27.781Z,62.57
2019-03-19T07:01:58.487Z,62.71
2019-03-19T07:04:29.402Z,63.73
2019-03-19T07:07:00.346Z,63.06
2019-03-19T07:09:31.566Z,63.69
2019-03-19T07:12:02.721Z,63.58
2019-03-19T07:14:33.966Z,62.89
2019-03-19T07:17:04.674Z,63.02
2019-03-19T07:19:35.618Z,62.99
2019-03-19T07:22:06.298Z,63.39
2019-03-19T07:24:36.996Z,64.21
2019-03-19T07:27:08.667Z,64.12
2019-03-19T07:29:39.559Z,67.98
2019-03-19T07:32:10.634Z,68.36
2019-03-19T07:34:41.613Z,68.93
2019-03-19T07:37:12.322Z,68.91
2019-03-19T07:39:42.984Z,68.52
2019-03-19T07:42:14.077Z,67.15
2019-03-19T07:44:45.225Z,66.94
2019-03-19T07:47:15.920Z,66.01
2019-03-19T07:49:46.931Z,65.18
2019-03-19T07:52:18.029Z,65.29
2019-03-19T07:54:48.749Z,64.71
2019-03-19T07:57:19.424Z,63.31
2019-03-19T07:59:50.158Z,61.90
2019-03-19T08:02:21.130Z,61.07
2019-03-19T08:04:54.799Z,61.40
2019-03-19T08:07:25.540Z,60.61
2019-03-19T08:09:56.224Z,61.48
2019-03-19T08:12:26.879Z,60.64
2019-03-19T08:14:57.570Z,61.03
2019-03-19T08:17:28.219Z,61.78
2019-03-19T08:19:59.162Z,61.13
2019-03-19T08:22:30.021Z,60.73
2019-03-19T08:25:00.886Z,60.36
2019-03-19T08:27:31.526Z,61.01
2019-03-19T08:30:02.295Z,62.05
2019-03-19T08:32:33.347Z,62.67
2019-03-19T08:35:06.453Z,62.78
2019-03-19T08:37:37.600Z,63.06
2019-03-19T08:40:15.846Z,63.68
2019-03-19T08:42:46.537Z,66.06
2019-03-19T08:45:23.571Z,67.81
2019-03-19T08:47:54.272Z,68.98
2019-03-19T08:50:25.764Z,69.89
2019-03-19T08:52:56.444Z,71.70
2019-03-19T08:55:27.220Z,72.21
2019-03-19T08:57:58.176Z,72.72
2019-03-19T09:00:29.408Z,73.18
2019-03-19T09:03:00.071Z,72.14
2019-03-19T09:05:30.807Z,73.04
2019-03-19T09:08:01.742Z,70.97
2019-03-19T09:10:32.667Z,69.35
2019-03-19T09:13:04.052Z,68.16
2019-03-19T09:15:34.726Z,67.34
2019-03-19T09:18:05.521Z,66.90
2019-03-19T09:20:37.105Z,66.12
2019-03-19T09:23:07.857Z,64.98
2019-03-19T09:25:38.907Z,64.96
2019-03-19T09:28:09.852Z,62.85
2019-03-19T09:30:40.617Z,62.60
2019-03-19T09:33:11.609Z,60.71
2019-03-19T09:35:42.419Z,60.46
2019-03-19T09:38:13.422Z,58.54
2019-03-19T09:40:44.100Z,55.81
2019-03-19T09:43:15.053Z,55.19
2019-03-19T09:45:46.000Z,54.17
2019-03-19T09:48:16.721Z,52.20
2019-03-19T09:50:47.731Z,53.27
2019-03-19T09:53:18.898Z,53.65
2019-03-19T09:55:49.781Z,55.08
2019-03-19T09:58:20.782Z,56.59
2019-03-19T10:00:51.726Z,57.32
2019-03-19T10:03:22.731Z,56.26
2019-03-19T10:05:53.639Z,55.24
2019-03-19T10:08:24.302Z,54.87
2019-03-19T10:10:55.004Z,55.04
2019-03-19T10:13:29.240Z,54.92
2019-03-19T10:16:00.032Z,52.40
2019-03-19T10:18:30.774Z,50.02
2019-03-19T10:21:01.495Z,49.56
2019-03-19T10:23:32.335Z,51.38
2019-03-19T10:26:03.364Z,52.55
2019-03-19T10:28:34.128Z,51.32
2019-03-19T10:31:05.069Z,51.88
2019-03-19T10:33:37.082Z,52.11
2019-03-19T10:36:08.078Z,50.34
2019-03-19T10:38:39.091Z,49.28
2019-03-19T10:41:09.817Z,49.64
2019-03-19T10:43:40.842Z,47.98
2019-03-19T10:46:11.527Z,45.67
2019-03-19T10:48:42.516Z,48.32
2019-03-19T10:51:13.187Z,47.36
2019-03-19T10:53:44.019Z,47.41
2019-03-19T10:56:14.980Z,46.40
2019-03-19T10:58:45.669Z,41.48
2019-03-19T11:01:16.682Z,39.53
2019-03-19T11:03:47.731Z,38.15
2019-03-19T11:06:18.502Z,36.70
2019-03-19T11:08:49.198Z,37.70
2019-03-19T11:11:20.139Z,38.24
2019-03-19T11:13:51.116Z,37.49
2019-03-19T11:16:22.086Z,38.46
2019-03-19T11:18:53.050Z,40.01
2019-03-19T11:21:23.733Z,39.34
2019-03-19T11:23:54.701Z,39.55
2019-03-19T11:26:25.959Z,39.43
2019-03-19T11:28:57.002Z,39.46
2019-03-19T11:31:27.783Z,39.30
2019-03-19T11:33:58.755Z,41.01
2019-03-19T11:36:29.526Z,42.36
2019-03-19T11:39:00.192Z,41.24
2019-03-19T11:41:30.905Z,41.09
2019-03-19T11:44:01.557Z,41.61
2019-03-19T11:46:32.313Z,40.88
2019-03-19T11:49:03.285Z,41.90
2019-03-19T11:51:34.308Z,41.92
2019-03-19T11:54:05.357Z,39.72
2019-03-19T11:56:36.362Z,36.87
2019-03-19T11:59:07.042Z,36.34
2019-03-19T12:01:37.982Z,38.39
2019-03-19T12:04:08.699Z,40.17
2019-03-19T12:06:39.639Z,41.21
2019-03-19T12:09:10.719Z,41.42
2019-03-19T12:11:41.389Z,41.26
2019-03-19T12:14:12.299Z,40.66
2019-03-19T12:16:43.389Z,41.20
2019-03-19T12:19:14.140Z,40.62
2019-03-19T12:21:44.822Z,39.32
2019-03-19T12:24:15.467Z,39.02
2019-03-19T12:26:46.580Z,38.29
2019-03-19T12:29:17.697Z,37.16
2019-03-19T12:31:48.450Z,37.41
2019-03-19T12:34:19.385Z,36.51
2019-03-19T12:36:50.362Z,35.54
2019-03-19T12:39:21.324Z,35.92
2019-03-19T12:41:52.013Z,38.56
2019-03-19T12:44:22.731Z,39.56
2019-03-19T12:46:53.402Z,39.86
2019-03-19T12:49:24.099Z,38.87
2019-03-19T12:51:54.930Z,40.24
2019-03-19T12:54:25.884Z,40.84
2019-03-19T12:56:56.555Z,40.53
2019-03-19T12:59:27.231Z,40.92
2019-03-19T13:01:58.209Z,41.15
2019-03-19T13:04:31.751Z,40.67
2019-03-19T13:07:01.510Z,42.09
2019-03-19T13:09:33.112Z,41.83
2019-03-19T13:12:04.219Z,42.42
2019-03-19T13:14:35.193Z,43.57
2019-03-19T13:17:06.038Z,45.49
2019-03-19T13:19:37.031Z,45.73
2019-03-19T13:22:08.377Z,46.86
2019-03-19T13:24:39.048Z,46.72
2019-03-19T13:27:09.759Z,47.67
2019-03-19T13:29:40.449Z,48.87
2019-03-19T13:32:11.100Z,49.08
2019-03-19T13:34:42.057Z,48.87
2019-03-19T13:37:12.708Z,48.85
2019-03-19T13:39:43.707Z,47.99
2019-03-19T13:42:14.733Z,47.60
2019-03-19T13:44:45.919Z,47.17
2019-03-19T13:47:16.950Z,45.83
2019-03-19T13:49:47.657Z,43.43
2019-03-19T13:52:18.396Z,43.00
2019-03-19T13:54:49.121Z,42.12
2019-03-19T13:57:19.819Z,41.54
2019-03-19T13:59:50.508Z,41.56
2019-03-19T14:02:21.536Z,41.63
2019-03-19T14:04:52.285Z,41.16
2019-03-19T14:07:22.961Z,41.56
2019-03-19T14:09:53.935Z,41.61
2019-03-19T14:12:24.591Z,40.95
2019-03-19T14:14:55.708Z,41.00
2019-03-19T14:17:26.421Z,41.50
2019-03-19T14:19:57.162Z,41.72
2019-03-19T14:22:27.869Z,42.34
2019-03-19T14:24:59.537Z,43.22
2019-03-19T14:27:30.627Z,44.50
2019-03-19T14:30:01.311Z,44.70
2019-03-19T14:32:32.110Z,45.23
2019-03-19T14:35:02.775Z,45.75
2019-03-19T14:37:34.423Z,46.94
2019-03-19T14:40:09.856Z,48.06
2019-03-19T14:42:40.568Z,49.39
2019-03-19T14:45:11.992Z,50.07
2019-03-19T14:47:42.735Z,51.88
2019-03-19T14:50:16.042Z,53.62
2019-03-19T14:52:47.019Z,54.71
2019-03-19T14:55:18.046Z,54.00
2019-03-19T14:57:51.037Z,54.09
2019-03-19T15:00:23.431Z,54.21
2019-03-19T15:02:54.139Z,53.06
2019-03-19T15:05:24.796Z,53.41
2019-03-19T15:07:55.733Z,54.36
2019-03-19T15:10:26.667Z,54.38
2019-03-19T15:12:57.615Z,53.53
2019-03-19T15:15:28.695Z,52.96
2019-03-19T15:17:59.668Z,52.76
2019-03-19T15:20:30.340Z,52.29
2019-03-19T15:23:01.208Z,51.91
2019-03-19T15:25:32.170Z,51.65
2019-03-19T15:28:03.242Z,51.53
2019-03-19T15:30:35.164Z,51.66
2019-03-19T15:33:06.164Z,51.77
2019-03-19T15:35:36.915Z,51.88
2019-03-19T15:38:07.593Z,52.18
2019-03-19T15:40:38.540Z,52.11
2019-03-19T15:43:09.209Z,51.69
2019-03-19T15:45:39.866Z,51.84
2019-03-19T15:48:10.531Z,51.81
2019-03-19T15:50:41.469Z,51.59
2019-03-19T15:53:12.220Z,52.04
2019-03-19T15:56:22.178Z,52.29
2019-03-19T15:58:53.196Z,52.39
2019-03-19T16:01:23.873Z,52.67
2019-03-19T16:03:54.547Z,53.23
2019-03-19T16:06:25.603Z,53.42
2019-03-19T16:08:56.299Z,53.42
2019-03-19T16:11:27.267Z,53.55
2019-03-19T16:13:58.316Z,53.59
2019-03-19T16:16:28.984Z,53.95
2019-03-19T16:18:59.682Z,53.12
2019-03-19T16:21:30.605Z,53.03
2019-03-19T16:24:01.382Z,53.00
2019-03-19T16:26:32.374Z,53.30
2019-03-19T16:29:03.277Z,53.71
2019-03-19T16:31:33.958Z,54.10
2019-03-19T16:34:04.776Z,53.90
2019-03-19T16:36:35.727Z,53.89
2019-03-19T16:39:08.035Z,53.68
2019-03-19T16:41:39.031Z,53.51
2019-03-19T16:44:10.066Z,53.57
2019-03-19T16:46:40.730Z,53.31
2019-03-19T16:49:11.698Z,53.29
2019-03-19T16:51:42.396Z,53.35
2019-03-19T16:54:13.091Z,53.67
2019-03-19T16:56:43.765Z,53.12
2019-03-19T16:59:14.769Z,52.91
2019-03-19T17:01:45.440Z,53.13
2019-03-19T17:04:16.469Z,53.22
2019-03-19T17:06:47.612Z,53.20
2019-03-19T17:09:18.344Z,53.58
2019-03-19T17:11:49.386Z,53.94
2019-03-19T17:14:20.407Z,54.28
2019-03-19T17:16:51.073Z,54.56
2019-03-19T17:19:22.083Z,54.69
2019-03-19T17:21:52.728Z,54.71
2019-03-19T17:24:23.693Z,54.84
2019-03-19T17:26:54.681Z,55.38
2019-03-19T17:29:25.369Z,55.07
2019-03-19T17:31:57.374Z,55.33
2019-03-19T17:34:28.314Z,55.70
2019-03-19T17:36:59.134Z,55.61
2019-03-19T17:39:30.084Z,55.93
2019-03-19T17:42:00.981Z,55.59
2019-03-19T17:44:32.000Z,56.12
2019-03-19T17:47:02.681Z,56.02
2019-03-19T17:49:33.640Z,56.07
2019-03-19T17:52:04.690Z,56.48
2019-03-19T17:54:35.369Z,56.68
2019-03-19T17:57:06.341Z,56.51
2019-03-19T17:59:37.399Z,56.61
2019-03-19T18:02:08.054Z,56.85
2019-03-19T18:04:39.064Z,56.59
2019-03-19T18:07:09.711Z,56.79
2019-03-19T18:09:40.390Z,57.15
2019-03-19T18:12:11.037Z,57.17
2019-03-19T18:14:42.203Z,57.49
2019-03-19T18:17:12.870Z,57.42
2019-03-19T18:19:44.571Z,57.87
2019-03-19T18:22:15.533Z,57.89
2019-03-19T18:24:46.554Z,57.92
2019-03-19T18:27:18.539Z,58.27
2019-03-19T18:29:49.564Z,58.48
2019-03-19T18:32:20.312Z,58.18
2019-03-19T18:34:51.324Z,58.08
2019-03-19T18:37:22.392Z,58.74
2019-03-19T18:39:53.086Z,58.69
2019-03-19T18:42:23.741Z,58.52
2019-03-19T18:44:54.532Z,58.40
2019-03-19T18:47:25.222Z,58.45
2019-03-19T18:49:56.198Z,58.56
2019-03-19T18:52:26.866Z,58.59
2019-03-19T18:54:57.955Z,58.17
2019-03-19T18:57:28.942Z,58.16
2019-03-19T19:00:00.161Z,58.13
2019-03-19T19:02:31.230Z,58.33
2019-03-19T19:05:01.912Z,58.43
2019-03-19T19:07:32.797Z,58.60
2019-03-19T19:10:04.756Z,58.34
2019-03-19T19:12:35.486Z,58.49
2019-03-19T19:15:14.213Z,58.12
2019-03-19T19:17:45.256Z,58.37
2019-03-19T19:20:19.883Z,58.16
2019-03-19T19:22:50.858Z,58.04
2019-03-19T19:25:26.658Z,58.00
2019-03-19T19:27:57.383Z,57.54
2019-03-19T19:30:30.908Z,57.57
2019-03-19T19:33:02.714Z,57.87
2019-03-19T19:35:34.027Z,58.08
2019-03-19T19:38:04.694Z,58.22
2019-03-19T19:40:35.413Z,58.09
2019-03-19T19:43:06.124Z,58.53
2019-03-19T19:45:37.256Z,57.48
2019-03-19T19:48:08.180Z,58.12
2019-03-19T19:50:38.867Z,58.58
2019-03-19T19:53:09.860Z,58.55
2019-03-19T19:55:40.899Z,58.24
2019-03-19T19:58:11.954Z,58.61
2019-03-19T20:00:43.009Z,58.44
2019-03-19T20:03:13.695Z,59.06
2019-03-19T20:05:44.616Z,59.34
2019-03-19T20:08:15.694Z,59.04
2019-03-19T20:10:46.366Z,58.94
2019-03-19T20:15:40.603Z,59.55
2019-03-19T20:18:11.693Z,59.33
2019-03-19T20:20:42.689Z,59.37
2019-03-19T20:23:13.737Z,59.37
2019-03-19T20:25:44.770Z,59.47
2019-03-19T20:28:15.419Z,59.02
2019-03-19T20:30:46.173Z,59.00
2019-03-19T20:33:24.856Z,59.27
2019-03-19T20:35:50.064Z,59.06
2019-03-19T20:38:22.132Z,59.92
2019-03-19T20:40:52.832Z,58.93
2019-03-19T20:43:23.667Z,59.09
2019-03-19T20:45:54.383Z,59.29
2019-03-19T20:48:25.081Z,59.67
2019-03-19T20:50:57.217Z,59.21
2019-03-19T20:53:28.259Z,58.82
2019-03-19T20:55:58.907Z,58.92
2019-03-19T20:58:29.866Z,58.74
2019-03-19T21:01:00.863Z,58.99
2019-03-19T21:03:36.121Z,58.59
2019-03-19T21:06:04.559Z,57.95
2019-03-19T21:08:35.517Z,57.89
2019-03-19T21:11:06.354Z,57.90
2019-03-19T21:13:37.030Z,57.48
2019-03-19T21:16:08.027Z,57.22
2019-03-19T21:18:38.963Z,57.14
2019-03-19T21:21:10.112Z,57.29
2019-03-19T21:23:41.037Z,57.54
2019-03-19T21:26:11.746Z,57.79
2019-03-19T21:28:42.724Z,57.95
2019-03-19T21:31:13.411Z,57.70
2019-03-19T21:33:51.141Z,57.50
2019-03-19T21:36:17.914Z,58.23
2019-03-19T21:38:48.604Z,57.96
2019-03-19T21:41:19.555Z,57.92
2019-03-19T21:43:50.616Z,57.69
2019-03-19T21:46:21.557Z,57.87
2019-03-19T21:48:52.565Z,57.82
2019-03-19T21:51:23.504Z,58.06
2019-03-19T21:53:54.237Z,58.08
2019-03-19T21:56:25.180Z,58.12
2019-03-19T21:58:56.165Z,57.66
2019-03-19T22:01:26.912Z,57.84
2019-03-19T22:04:03.136Z,57.45
2019-03-19T22:06:30.358Z,57.66
2019-03-19T22:09:01.011Z,57.79
2019-03-19T22:11:33.669Z,57.85
2019-03-19T22:14:04.403Z,58.08
2019-03-19T22:16:35.451Z,57.77
2019-03-19T22:19:06.620Z,57.57
2019-03-19T22:21:37.305Z,57.65
2019-03-19T22:24:08.035Z,58.24
2019-03-19T22:26:38.711Z,58.27
2019-03-19T22:29:09.408Z,58.38
2019-03-19T22:31:40.065Z,58.48
2019-03-19T22:34:14.366Z,58.56
2019-03-19T22:36:43.966Z,58.66
2019-03-19T22:39:15.026Z,59.12
2019-03-19T22:41:45.952Z,58.99
2019-03-19T22:44:16.702Z,58.98
2019-03-19T22:46:47.614Z,58.51
2019-03-19T22:49:18.353Z,59.30
2019-03-19T22:51:50.023Z,59.29
2019-03-19T22:54:21.869Z,59.21
2019-03-19T22:56:52.552Z,59.17
2019-03-19T22:59:23.239Z,59.15
2019-03-19T23:01:54.028Z,59.24
2019-03-19T23:04:27.428Z,59.45
2019-03-19T23:06:57.341Z,59.66
2019-03-19T23:09:28.330Z,59.25
2019-03-19T23:11:59.344Z,59.41
2019-03-19T23:14:30.286Z,59.51
2019-03-19T23:17:00.956Z,59.31
2019-03-19T23:19:31.887Z,59.28
2019-03-19T23:22:02.642Z,59.45
2019-03-19T23:24:34.953Z,59.88
2019-03-19T23:27:06.667Z,59.62
2019-03-19T23:29:37.324Z,59.99
2019-03-19T23:32:08.144Z,59.95
2019-03-19T23:34:38.966Z,60.55
2019-03-19T23:37:09.941Z,60.99
2019-03-19T23:39:40.957Z,60.73
2019-03-19T23:42:11.925Z,60.71
2019-03-19T23:44:42.597Z,61.51
2019-03-19T23:47:13.565Z,61.15
2019-03-19T23:49:44.232Z,61.20
2019-03-19T23:52:14.914Z,61.31
2019-03-19T23:54:45.815Z,61.29
2019-03-19T23:57:16.759Z,61.57
2019-03-19T23:59:47.742Z,61.71
